sensor_id;sensor_type;location;lat;lon;timestamp;P1;durP1;ratioP1;P2;durP2;ratioP2
69551;SDS011;63774;45.292;11.784;2022-09-27T00:02:28;14.70;;;10.80;;
69551;SDS011;63774;45.292;11.784;2022-09-27T00:04:53;17.50;;;11.70;;
69551;SDS011;63774;45.292;11.784;2022-09-27T00:07:31;14.90;;;10.90;;
69551;SDS011;63774;45.292;11.784;2022-09-27T00:09:57;14.50;;;11.00;;
69551;SDS011;63774;45.292;11.784;2022-09-27T00:12:24;14.90;;;11.20;;
69551;SDS011;63774;45.292;11.784;2022-09-27T00:14:49;15.70;;;10.70;;
69551;SDS011;63774;45.292;11.784;2022-09-27T00:17:24;15.00;;;10.30;;
69551;SDS011;63774;45.292;11.784;2022-09-27T00:19:53;14.20;;;10.50;;
69551;SDS011;63774;45.292;11.784;2022-09-27T00:22:23;13.00;;;10.10;;
69551;SDS011;63774;45.292;11.784;2022-09-27T00:24:56;14.80;;;9.90;;
69551;SDS011;63774;45.292;11.784;2022-09-27T00:27:22;14.50;;;10.20;;
69551;SDS011;63774;45.292;11.784;2022-09-27T00:29:47;13.60;;;9.80;;
69551;SDS011;63774;45.292;11.784;2022-09-27T00:32:19;13.10;;;9.30;;
69551;SDS011;63774;45.292;11.784;2022-09-27T00:34:45;13.30;;;9.50;;
69551;SDS011;63774;45.292;11.784;2022-09-27T00:37:13;13.80;;;10.00;;
69551;SDS011;63774;45.292;11.784;2022-09-27T00:39:39;12.10;;;9.30;;
69551;SDS011;63774;45.292;11.784;2022-09-27T00:42:07;11.90;;;9.00;;
69551;SDS011;63774;45.292;11.784;2022-09-27T00:50:06;10.90;;;8.40;;
69551;SDS011;63774;45.292;11.784;2022-09-27T00:52:50;11.40;;;8.20;;
69551;SDS011;63774;45.292;11.784;2022-09-27T00:55:28;12.00;;;8.70;;
69551;SDS011;63774;45.292;11.784;2022-09-27T00:57:59;11.00;;;8.50;;
69551;SDS011;63774;45.292;11.784;2022-09-27T01:00:35;11.00;;;8.00;;
69551;SDS011;63774;45.292;11.784;2022-09-27T01:03:04;10.50;;;8.10;;
69551;SDS011;63774;45.292;11.784;2022-09-27T01:05:32;10.80;;;8.10;;
69551;SDS011;63774;45.292;11.784;2022-09-27T01:07:58;11.90;;;8.90;;
69551;SDS011;63774;45.292;11.784;2022-09-27T01:10:39;10.60;;;7.80;;
69551;SDS011;63774;45.292;11.784;2022-09-27T01:13:19;11.90;;;7.70;;
69551;SDS011;63774;45.292;11.784;2022-09-27T01:15:57;10.90;;;7.90;;
69551;SDS011;63774;45.292;11.784;2022-09-27T01:24:38;9.60;;;7.10;;
69551;SDS011;63774;45.292;11.784;2022-09-27T01:27:23;10.20;;;7.60;;
69551;SDS011;63774;45.292;11.784;2022-09-27T01:35:56;12.00;;;8.10;;
69551;SDS011;63774;45.292;11.784;2022-09-27T01:39:05;9.80;;;7.70;;
69551;SDS011;63774;45.292;11.784;2022-09-27T01:44:04;10.30;;;7.60;;
69551;SDS011;63774;45.292;11.784;2022-09-27T01:46:36;10.10;;;7.40;;
69551;SDS011;63774;45.292;11.784;2022-09-27T01:49:17;11.70;;;7.80;;
69551;SDS011;63774;45.292;11.784;2022-09-27T01:52:05;9.50;;;7.50;;
69551;SDS011;63774;45.292;11.784;2022-09-27T01:54:37;9.10;;;6.70;;
69551;SDS011;63774;45.292;11.784;2022-09-27T01:57:07;9.80;;;6.50;;
69551;SDS011;63774;45.292;11.784;2022-09-27T02:00:00;10.20;;;6.90;;
69551;SDS011;63774;45.292;11.784;2022-09-27T02:02:37;9.80;;;7.00;;
69551;SDS011;63774;45.292;11.784;2022-09-27T02:05:09;8.90;;;6.80;;
69551;SDS011;63774;45.292;11.784;2022-09-27T02:10:28;9.30;;;7.10;;
69551;SDS011;63774;45.292;11.784;2022-09-27T02:21:52;8.50;;;6.60;;
69551;SDS011;63774;45.292;11.784;2022-09-27T02:24:30;10.00;;;7.10;;
69551;SDS011;63774;45.292;11.784;2022-09-27T02:27:20;9.70;;;6.80;;
69551;SDS011;63774;45.292;11.784;2022-09-27T02:32:58;9.00;;;6.40;;
69551;SDS011;63774;45.292;11.784;2022-09-27T02:35:45;8.50;;;6.60;;
69551;SDS011;63774;45.292;11.784;2022-09-27T02:38:10;7.90;;;6.00;;
69551;SDS011;63774;45.292;11.784;2022-09-27T02:40:44;8.30;;;6.10;;
69551;SDS011;63774;45.292;11.784;2022-09-27T02:43:11;8.30;;;6.20;;
69551;SDS011;63774;45.292;11.784;2022-09-27T02:46:18;8.20;;;5.80;;
69551;SDS011;63774;45.292;11.784;2022-09-27T02:52:11;6.40;;;5.30;;
69551;SDS011;63774;45.292;11.784;2022-09-27T03:01:01;7.60;;;5.70;;
69551;SDS011;63774;45.292;11.784;2022-09-27T03:03:52;7.40;;;5.60;;
69551;SDS011;63774;45.292;11.784;2022-09-27T03:06:51;6.80;;;5.20;;
69551;SDS011;63774;45.292;11.784;2022-09-27T03:09:38;7.30;;;5.50;;
69551;SDS011;63774;45.292;11.784;2022-09-27T03:12:14;7.90;;;5.20;;
69551;SDS011;63774;45.292;11.784;2022-09-27T03:15:02;7.00;;;5.20;;
69551;SDS011;63774;45.292;11.784;2022-09-27T03:20:19;6.80;;;5.10;;
69551;SDS011;63774;45.292;11.784;2022-09-27T03:22:54;6.70;;;5.10;;
69551;SDS011;63774;45.292;11.784;2022-09-27T03:26:03;6.90;;;5.20;;
69551;SDS011;63774;45.292;11.784;2022-09-27T03:28:30;7.50;;;5.00;;
69551;SDS011;63774;45.292;11.784;2022-09-27T03:31:01;6.30;;;5.00;;
69551;SDS011;63774;45.292;11.784;2022-09-27T03:33:49;6.70;;;5.10;;
69551;SDS011;63774;45.292;11.784;2022-09-27T03:44:52;6.30;;;4.80;;
69551;SDS011;63774;45.292;11.784;2022-09-27T03:50:21;7.90;;;4.40;;
69551;SDS011;63774;45.292;11.784;2022-09-27T03:53:07;5.90;;;4.80;;
69551;SDS011;63774;45.292;11.784;2022-09-27T03:55:55;5.60;;;4.30;;
69551;SDS011;63774;45.292;11.784;2022-09-27T03:58:31;5.90;;;4.30;;
69551;SDS011;63774;45.292;11.784;2022-09-27T04:03:44;6.50;;;4.90;;
69551;SDS011;63774;45.292;11.784;2022-09-27T04:06:18;7.20;;;4.40;;
69551;SDS011;63774;45.292;11.784;2022-09-27T04:08:55;7.00;;;4.50;;
69551;SDS011;63774;45.292;11.784;2022-09-27T04:11:47;4.50;;;3.80;;
69551;SDS011;63774;45.292;11.784;2022-09-27T04:16:54;4.80;;;3.90;;
69551;SDS011;63774;45.292;11.784;2022-09-27T04:19:40;5.40;;;4.00;;
69551;SDS011;63774;45.292;11.784;2022-09-27T04:25:06;4.90;;;3.60;;
69551;SDS011;63774;45.292;11.784;2022-09-27T04:27:34;5.50;;;3.80;;
69551;SDS011;63774;45.292;11.784;2022-09-27T04:32:56;4.60;;;3.60;;
69551;SDS011;63774;45.292;11.784;2022-09-27T04:35:22;4.40;;;3.50;;
69551;SDS011;63774;45.292;11.784;2022-09-27T04:38:18;6.20;;;3.80;;
69551;SDS011;63774;45.292;11.784;2022-09-27T04:40:54;4.40;;;3.70;;
69551;SDS011;63774;45.292;11.784;2022-09-27T04:43:20;4.70;;;3.60;;
69551;SDS011;63774;45.292;11.784;2022-09-27T04:45:51;4.10;;;3.30;;
69551;SDS011;63774;45.292;11.784;2022-09-27T04:48:16;4.70;;;3.30;;
69551;SDS011;63774;45.292;11.784;2022-09-27T04:50:42;4.90;;;3.40;;
69551;SDS011;63774;45.292;11.784;2022-09-27T04:53:12;5.10;;;3.70;;
69551;SDS011;63774;45.292;11.784;2022-09-27T04:55:43;4.50;;;3.70;;
69551;SDS011;63774;45.292;11.784;2022-09-27T04:58:12;4.70;;;3.70;;
69551;SDS011;63774;45.292;11.784;2022-09-27T05:00:39;5.20;;;3.60;;
69551;SDS011;63774;45.292;11.784;2022-09-27T05:03:15;4.60;;;3.80;;
69551;SDS011;63774;45.292;11.784;2022-09-27T05:05:50;4.90;;;3.80;;
69551;SDS011;63774;45.292;11.784;2022-09-27T05:08:37;5.00;;;3.90;;
69551;SDS011;63774;45.292;11.784;2022-09-27T05:13:36;5.50;;;4.30;;
69551;SDS011;63774;45.292;11.784;2022-09-27T05:16:02;6.20;;;4.50;;
69551;SDS011;63774;45.292;11.784;2022-09-27T05:18:29;5.80;;;4.30;;
69551;SDS011;63774;45.292;11.784;2022-09-27T05:21:18;6.40;;;4.40;;
69551;SDS011;63774;45.292;11.784;2022-09-27T05:23:47;6.40;;;4.80;;
69551;SDS011;63774;45.292;11.784;2022-09-27T05:26:12;6.10;;;5.10;;
69551;SDS011;63774;45.292;11.784;2022-09-27T05:31:25;6.40;;;5.00;;
69551;SDS011;63774;45.292;11.784;2022-09-27T05:34:08;7.10;;;5.10;;
69551;SDS011;63774;45.292;11.784;2022-09-27T05:36:40;7.30;;;5.30;;
69551;SDS011;63774;45.292;11.784;2022-09-27T05:39:11;6.10;;;5.00;;
69551;SDS011;63774;45.292;11.784;2022-09-27T05:41:41;7.00;;;5.60;;
69551;SDS011;63774;45.292;11.784;2022-09-27T05:44:18;7.20;;;5.80;;
69551;SDS011;63774;45.292;11.784;2022-09-27T05:46:44;6.50;;;5.60;;
69551;SDS011;63774;45.292;11.784;2022-09-27T05:49:23;7.20;;;6.00;;
69551;SDS011;63774;45.292;11.784;2022-09-27T05:51:52;6.80;;;5.40;;
69551;SDS011;63774;45.292;11.784;2022-09-27T05:54:18;8.80;;;5.50;;
69551;SDS011;63774;45.292;11.784;2022-09-27T05:57:11;7.20;;;5.40;;
69551;SDS011;63774;45.292;11.784;2022-09-27T05:59:58;6.90;;;5.60;;
69551;SDS011;63774;45.292;11.784;2022-09-27T06:02:24;6.90;;;5.70;;
69551;SDS011;63774;45.292;11.784;2022-09-27T06:04:53;7.90;;;5.80;;
69551;SDS011;63774;45.292;11.784;2022-09-27T06:07:39;5.70;;;5.10;;
69551;SDS011;63774;45.292;11.784;2022-09-27T06:13:01;7.20;;;5.90;;
69551;SDS011;63774;45.292;11.784;2022-09-27T06:15:29;8.40;;;5.70;;
69551;SDS011;63774;45.292;11.784;2022-09-27T06:18:01;7.20;;;6.00;;
69551;SDS011;63774;45.292;11.784;2022-09-27T06:20:31;8.00;;;5.80;;
69551;SDS011;63774;45.292;11.784;2022-09-27T06:25:52;6.90;;;5.60;;
69551;SDS011;63774;45.292;11.784;2022-09-27T06:28:19;8.10;;;6.50;;
69551;SDS011;63774;45.292;11.784;2022-09-27T06:30:47;8.20;;;6.70;;
69551;SDS011;63774;45.292;11.784;2022-09-27T06:33:18;9.30;;;7.10;;
69551;SDS011;63774;45.292;11.784;2022-09-27T06:35:46;10.00;;;7.60;;
69551;SDS011;63774;45.292;11.784;2022-09-27T06:38:32;10.10;;;8.00;;
69551;SDS011;63774;45.292;11.784;2022-09-27T06:46:30;10.70;;;8.00;;
69551;SDS011;63774;45.292;11.784;2022-09-27T06:49:18;8.80;;;7.00;;
69551;SDS011;63774;45.292;11.784;2022-09-27T06:54:39;9.80;;;6.40;;
69551;SDS011;63774;45.292;11.784;2022-09-27T06:57:12;9.90;;;6.30;;
69551;SDS011;63774;45.292;11.784;2022-09-27T06:59:58;8.10;;;5.60;;
69551;SDS011;63774;45.292;11.784;2022-09-27T07:05:55;6.30;;;5.20;;
69551;SDS011;63774;45.292;11.784;2022-09-27T07:08:21;9.20;;;5.20;;
69551;SDS011;63774;45.292;11.784;2022-09-27T07:13:54;6.60;;;5.40;;
69551;SDS011;63774;45.292;11.784;2022-09-27T07:16:36;7.20;;;5.70;;
69551;SDS011;63774;45.292;11.784;2022-09-27T07:24:56;7.10;;;5.00;;
69551;SDS011;63774;45.292;11.784;2022-09-27T07:30:36;6.70;;;5.00;;
69551;SDS011;63774;45.292;11.784;2022-09-27T07:33:43;6.50;;;5.10;;
69551;SDS011;63774;45.292;11.784;2022-09-27T07:39:30;6.70;;;4.60;;
69551;SDS011;63774;45.292;11.784;2022-09-27T07:42:05;5.80;;;4.70;;
69551;SDS011;63774;45.292;11.784;2022-09-27T07:47:50;6.60;;;4.30;;
69551;SDS011;63774;45.292;11.784;2022-09-27T07:50:26;6.20;;;4.10;;
69551;SDS011;63774;45.292;11.784;2022-09-27T07:53:04;4.80;;;3.60;;
69551;SDS011;63774;45.292;11.784;2022-09-27T07:55:43;5.10;;;3.90;;
69551;SDS011;63774;45.292;11.784;2022-09-27T07:58:14;4.60;;;3.60;;
69551;SDS011;63774;45.292;11.784;2022-09-27T08:00:40;5.40;;;3.90;;
69551;SDS011;63774;45.292;11.784;2022-09-27T08:03:14;5.50;;;3.70;;
69551;SDS011;63774;45.292;11.784;2022-09-27T08:05:44;5.40;;;3.80;;
69551;SDS011;63774;45.292;11.784;2022-09-27T08:08:12;4.90;;;3.80;;
69551;SDS011;63774;45.292;11.784;2022-09-27T08:10:48;5.20;;;3.80;;
69551;SDS011;63774;45.292;11.784;2022-09-27T08:13:14;5.20;;;3.60;;
69551;SDS011;63774;45.292;11.784;2022-09-27T08:15:44;5.40;;;3.80;;
69551;SDS011;63774;45.292;11.784;2022-09-27T08:18:35;4.50;;;3.50;;
69551;SDS011;63774;45.292;11.784;2022-09-27T08:23:50;5.20;;;3.90;;
69551;SDS011;63774;45.292;11.784;2022-09-27T08:26:16;4.30;;;3.50;;
69551;SDS011;63774;45.292;11.784;2022-09-27T08:28:46;4.80;;;3.40;;
69551;SDS011;63774;45.292;11.784;2022-09-27T08:31:12;3.70;;;3.00;;
69551;SDS011;63774;45.292;11.784;2022-09-27T08:33:52;10.20;;;3.30;;
69551;SDS011;63774;45.292;11.784;2022-09-27T08:36:21;4.50;;;3.20;;
69551;SDS011;63774;45.292;11.784;2022-09-27T08:38:56;4.10;;;3.00;;
69551;SDS011;63774;45.292;11.784;2022-09-27T08:47:58;3.70;;;2.80;;
69551;SDS011;63774;45.292;11.784;2022-09-27T08:50:40;4.20;;;2.70;;
69551;SDS011;63774;45.292;11.784;2022-09-27T08:55:53;3.30;;;2.70;;
69551;SDS011;63774;45.292;11.784;2022-09-27T09:01:09;4.00;;;2.90;;
69551;SDS011;63774;45.292;11.784;2022-09-27T09:03:39;3.30;;;2.80;;
69551;SDS011;63774;45.292;11.784;2022-09-27T09:18:49;4.50;;;3.30;;
69551;SDS011;63774;45.292;11.784;2022-09-27T09:21:58;5.90;;;3.50;;
69551;SDS011;63774;45.292;11.784;2022-09-27T09:25:06;4.70;;;3.20;;
69551;SDS011;63774;45.292;11.784;2022-09-27T09:28:15;4.50;;;3.30;;
69551;SDS011;63774;45.292;11.784;2022-09-27T09:36:44;5.80;;;3.30;;
69551;SDS011;63774;45.292;11.784;2022-09-27T09:39:19;4.80;;;3.40;;
69551;SDS011;63774;45.292;11.784;2022-09-27T09:42:01;4.20;;;3.20;;
69551;SDS011;63774;45.292;11.784;2022-09-27T09:44:40;5.10;;;3.30;;
69551;SDS011;63774;45.292;11.784;2022-09-27T09:50:29;4.60;;;3.20;;
69551;SDS011;63774;45.292;11.784;2022-09-27T09:53:08;4.50;;;3.50;;
69551;SDS011;63774;45.292;11.784;2022-09-27T09:55:44;5.00;;;3.30;;
69551;SDS011;63774;45.292;11.784;2022-09-27T09:58:34;5.10;;;3.30;;
69551;SDS011;63774;45.292;11.784;2022-09-27T10:03:42;3.60;;;2.80;;
69551;SDS011;63774;45.292;11.784;2022-09-27T10:06:11;3.70;;;2.80;;
69551;SDS011;63774;45.292;11.784;2022-09-27T10:08:38;3.70;;;2.40;;
69551;SDS011;63774;45.292;11.784;2022-09-27T10:11:05;3.60;;;2.40;;
69551;SDS011;63774;45.292;11.784;2022-09-27T10:13:43;4.20;;;2.50;;
69551;SDS011;63774;45.292;11.784;2022-09-27T10:16:13;6.60;;;3.00;;
69551;SDS011;63774;45.292;11.784;2022-09-27T10:18:42;3.50;;;2.20;;
69551;SDS011;63774;45.292;11.784;2022-09-27T10:21:10;4.40;;;2.60;;
69551;SDS011;63774;45.292;11.784;2022-09-27T10:24:04;3.20;;;2.10;;
69551;SDS011;63774;45.292;11.784;2022-09-27T10:26:37;3.20;;;2.00;;
69551;SDS011;63774;45.292;11.784;2022-09-27T10:32:03;5.30;;;2.30;;
69551;SDS011;63774;45.292;11.784;2022-09-27T10:34:42;2.50;;;1.90;;
69551;SDS011;63774;45.292;11.784;2022-09-27T10:38:33;4.20;;;2.10;;
69551;SDS011;63774;45.292;11.784;2022-09-27T10:40:30;3.40;;;1.90;;
69551;SDS011;63774;45.292;11.784;2022-09-27T10:42:58;3.90;;;2.00;;
69551;SDS011;63774;45.292;11.784;2022-09-27T10:45:34;3.60;;;2.00;;
69551;SDS011;63774;45.292;11.784;2022-09-27T10:48:01;3.20;;;1.90;;
69551;SDS011;63774;45.292;11.784;2022-09-27T10:51:22;3.10;;;2.10;;
69551;SDS011;63774;45.292;11.784;2022-09-27T10:53:54;3.10;;;1.90;;
69551;SDS011;63774;45.292;11.784;2022-09-27T10:59:19;3.50;;;1.90;;
69551;SDS011;63774;45.292;11.784;2022-09-27T11:11:23;5.80;;;2.20;;
69551;SDS011;63774;45.292;11.784;2022-09-27T11:20:42;6.20;;;2.30;;
69551;SDS011;63774;45.292;11.784;2022-09-27T11:26:45;4.70;;;2.40;;
69551;SDS011;63774;45.292;11.784;2022-09-27T11:33:57;5.10;;;2.70;;
69551;SDS011;63774;45.292;11.784;2022-09-27T11:43:24;4.80;;;2.60;;
69551;SDS011;63774;45.292;11.784;2022-09-27T11:46:11;3.90;;;2.60;;
69551;SDS011;63774;45.292;11.784;2022-09-27T12:11:56;4.70;;;2.50;;
69551;SDS011;63774;45.292;11.784;2022-09-27T12:15:12;3.80;;;2.40;;
69551;SDS011;63774;45.292;11.784;2022-09-27T12:18:06;4.60;;;2.00;;
69551;SDS011;63774;45.292;11.784;2022-09-27T12:23:14;4.00;;;2.00;;
69551;SDS011;63774;45.292;11.784;2022-09-27T12:25:45;4.30;;;2.10;;
69551;SDS011;63774;45.292;11.784;2022-09-27T12:31:23;5.10;;;2.40;;
69551;SDS011;63774;45.292;11.784;2022-09-27T12:36:42;3.70;;;2.10;;
69551;SDS011;63774;45.292;11.784;2022-09-27T12:39:17;4.60;;;2.30;;
69551;SDS011;63774;45.292;11.784;2022-09-27T12:42:24;3.90;;;2.20;;
69551;SDS011;63774;45.292;11.784;2022-09-27T12:44:48;4.90;;;2.00;;
69551;SDS011;63774;45.292;11.784;2022-09-27T12:50:38;3.20;;;1.80;;
69551;SDS011;63774;45.292;11.784;2022-09-27T12:53:27;4.60;;;2.20;;
69551;SDS011;63774;45.292;11.784;2022-09-27T12:56:18;4.50;;;2.10;;
69551;SDS011;63774;45.292;11.784;2022-09-27T13:08:34;5.00;;;2.20;;
69551;SDS011;63774;45.292;11.784;2022-09-27T13:14:34;3.60;;;2.00;;
69551;SDS011;63774;45.292;11.784;2022-09-27T13:17:30;3.40;;;1.90;;
69551;SDS011;63774;45.292;11.784;2022-09-27T13:19:58;5.00;;;2.30;;
69551;SDS011;63774;45.292;11.784;2022-09-27T13:24:53;3.60;;;2.10;;
69551;SDS011;63774;45.292;11.784;2022-09-27T13:29:48;4.90;;;2.20;;
69551;SDS011;63774;45.292;11.784;2022-09-27T13:32:16;2.90;;;2.30;;
69551;SDS011;63774;45.292;11.784;2022-09-27T13:34:55;3.30;;;2.10;;
69551;SDS011;63774;45.292;11.784;2022-09-27T13:46:42;3.90;;;1.80;;
69551;SDS011;63774;45.292;11.784;2022-09-27T13:49:22;4.50;;;2.20;;
69551;SDS011;63774;45.292;11.784;2022-09-27T13:52:13;4.70;;;2.10;;
69551;SDS011;63774;45.292;11.784;2022-09-27T13:54:58;3.20;;;2.10;;
69551;SDS011;63774;45.292;11.784;2022-09-27T14:00:31;4.60;;;1.90;;
69551;SDS011;63774;45.292;11.784;2022-09-27T14:05:49;3.20;;;2.10;;
69551;SDS011;63774;45.292;11.784;2022-09-27T14:08:31;3.40;;;1.90;;
69551;SDS011;63774;45.292;11.784;2022-09-27T14:11:01;4.00;;;2.10;;
69551;SDS011;63774;45.292;11.784;2022-09-27T14:13:34;5.60;;;2.00;;
69551;SDS011;63774;45.292;11.784;2022-09-27T14:16:04;2.80;;;2.00;;
69551;SDS011;63774;45.292;11.784;2022-09-27T14:18:30;5.70;;;2.10;;
69551;SDS011;63774;45.292;11.784;2022-09-27T14:23:53;4.60;;;1.90;;
69551;SDS011;63774;45.292;11.784;2022-09-27T14:26:44;3.30;;;2.10;;
69551;SDS011;63774;45.292;11.784;2022-09-27T14:29:20;4.80;;;2.20;;
69551;SDS011;63774;45.292;11.784;2022-09-27T14:32:00;4.20;;;2.00;;
69551;SDS011;63774;45.292;11.784;2022-09-27T14:34:28;4.00;;;1.90;;
69551;SDS011;63774;45.292;11.784;2022-09-27T14:37:03;2.90;;;2.10;;
69551;SDS011;63774;45.292;11.784;2022-09-27T14:39:57;3.80;;;2.20;;
69551;SDS011;63774;45.292;11.784;2022-09-27T14:48:21;3.30;;;2.30;;
69551;SDS011;63774;45.292;11.784;2022-09-27T14:53:59;3.90;;;2.40;;
69551;SDS011;63774;45.292;11.784;2022-09-27T14:56:37;3.90;;;2.60;;
69551;SDS011;63774;45.292;11.784;2022-09-27T15:01:59;5.90;;;2.90;;
69551;SDS011;63774;45.292;11.784;2022-09-27T15:04:32;4.30;;;2.50;;
69551;SDS011;63774;45.292;11.784;2022-09-27T15:07:39;4.10;;;2.70;;
69551;SDS011;63774;45.292;11.784;2022-09-27T15:10:29;4.70;;;2.50;;
69551;SDS011;63774;45.292;11.784;2022-09-27T15:12:58;3.50;;;2.50;;
69551;SDS011;63774;45.292;11.784;2022-09-27T15:15:34;4.20;;;2.70;;
69551;SDS011;63774;45.292;11.784;2022-09-27T15:21:26;4.50;;;2.50;;
69551;SDS011;63774;45.292;11.784;2022-09-27T15:23:56;3.40;;;2.40;;
69551;SDS011;63774;45.292;11.784;2022-09-27T15:29:23;3.60;;;2.40;;
69551;SDS011;63774;45.292;11.784;2022-09-27T15:32:01;4.80;;;2.40;;
69551;SDS011;63774;45.292;11.784;2022-09-27T15:34:32;3.40;;;2.20;;
69551;SDS011;63774;45.292;11.784;2022-09-27T15:37:23;5.80;;;2.30;;
69551;SDS011;63774;45.292;11.784;2022-09-27T15:39:51;3.70;;;2.30;;
69551;SDS011;63774;45.292;11.784;2022-09-27T15:42:17;3.70;;;2.20;;
69551;SDS011;63774;45.292;11.784;2022-09-27T15:45:00;3.50;;;2.40;;
69551;SDS011;63774;45.292;11.784;2022-09-27T15:56:18;3.40;;;1.70;;
69551;SDS011;63774;45.292;11.784;2022-09-27T15:58:46;3.90;;;2.10;;
69551;SDS011;63774;45.292;11.784;2022-09-27T16:01:16;4.80;;;2.20;;
69551;SDS011;63774;45.292;11.784;2022-09-27T16:03:46;3.90;;;2.00;;
69551;SDS011;63774;45.292;11.784;2022-09-27T16:06:12;4.10;;;2.10;;
69551;SDS011;63774;45.292;11.784;2022-09-27T16:08:58;4.10;;;2.20;;
69551;SDS011;63774;45.292;11.784;2022-09-27T16:11:36;4.10;;;2.20;;
69551;SDS011;63774;45.292;11.784;2022-09-27T16:14:04;3.10;;;2.00;;
69551;SDS011;63774;45.292;11.784;2022-09-27T16:16:32;4.70;;;2.50;;
69551;SDS011;63774;45.292;11.784;2022-09-27T16:19:01;4.30;;;2.40;;
69551;SDS011;63774;45.292;11.784;2022-09-27T16:21:27;3.80;;;2.10;;
69551;SDS011;63774;45.292;11.784;2022-09-27T16:23:52;3.60;;;2.40;;
69551;SDS011;63774;45.292;11.784;2022-09-27T16:26:19;5.50;;;2.20;;
69551;SDS011;63774;45.292;11.784;2022-09-27T16:28:54;3.50;;;2.30;;
69551;SDS011;63774;45.292;11.784;2022-09-27T16:31:20;3.10;;;1.80;;
69551;SDS011;63774;45.292;11.784;2022-09-27T16:34:09;3.50;;;2.20;;
69551;SDS011;63774;45.292;11.784;2022-09-27T16:36:34;4.30;;;2.40;;
69551;SDS011;63774;45.292;11.784;2022-09-27T16:39:00;4.40;;;2.50;;
69551;SDS011;63774;45.292;11.784;2022-09-27T16:41:30;4.40;;;2.40;;
69551;SDS011;63774;45.292;11.784;2022-09-27T16:44:04;5.10;;;2.20;;
69551;SDS011;63774;45.292;11.784;2022-09-27T16:46:34;4.50;;;2.70;;
69551;SDS011;63774;45.292;11.784;2022-09-27T16:49:18;4.90;;;2.50;;
69551;SDS011;63774;45.292;11.784;2022-09-27T16:52:24;3.50;;;2.60;;
69551;SDS011;63774;45.292;11.784;2022-09-27T16:54:51;3.90;;;2.60;;
69551;SDS011;63774;45.292;11.784;2022-09-27T16:57:23;5.40;;;2.70;;
69551;SDS011;63774;45.292;11.784;2022-09-27T16:59:54;5.20;;;2.40;;
69551;SDS011;63774;45.292;11.784;2022-09-27T17:02:21;4.50;;;2.50;;
69551;SDS011;63774;45.292;11.784;2022-09-27T17:04:50;5.40;;;2.60;;
69551;SDS011;63774;45.292;11.784;2022-09-27T17:09:50;4.80;;;2.60;;
69551;SDS011;63774;45.292;11.784;2022-09-27T17:14:58;7.50;;;2.60;;
69551;SDS011;63774;45.292;11.784;2022-09-27T17:17:29;7.40;;;3.00;;
69551;SDS011;63774;45.292;11.784;2022-09-27T17:19:55;6.20;;;2.90;;
69551;SDS011;63774;45.292;11.784;2022-09-27T17:25:01;5.70;;;3.10;;
69551;SDS011;63774;45.292;11.784;2022-09-27T17:30:04;4.90;;;2.90;;
69551;SDS011;63774;45.292;11.784;2022-09-27T17:32:39;7.00;;;3.20;;
69551;SDS011;63774;45.292;11.784;2022-09-27T17:35:08;7.50;;;3.30;;
69551;SDS011;63774;45.292;11.784;2022-09-27T17:37:35;5.10;;;3.40;;
69551;SDS011;63774;45.292;11.784;2022-09-27T17:40:01;7.20;;;3.90;;
69551;SDS011;63774;45.292;11.784;2022-09-27T17:42:28;5.80;;;3.40;;
69551;SDS011;63774;45.292;11.784;2022-09-27T17:44:53;7.50;;;3.70;;
69551;SDS011;63774;45.292;11.784;2022-09-27T17:47:22;5.20;;;3.10;;
69551;SDS011;63774;45.292;11.784;2022-09-27T17:50:16;6.30;;;3.10;;
69551;SDS011;63774;45.292;11.784;2022-09-27T17:52:55;5.30;;;3.30;;
69551;SDS011;63774;45.292;11.784;2022-09-27T17:55:22;7.80;;;3.00;;
69551;SDS011;63774;45.292;11.784;2022-09-27T17:57:47;6.80;;;3.30;;
69551;SDS011;63774;45.292;11.784;2022-09-27T18:00:16;7.20;;;3.00;;
69551;SDS011;63774;45.292;11.784;2022-09-27T18:02:43;4.60;;;3.10;;
69551;SDS011;63774;45.292;11.784;2022-09-27T18:05:13;4.60;;;2.90;;
69551;SDS011;63774;45.292;11.784;2022-09-27T18:07:38;4.80;;;3.00;;
69551;SDS011;63774;45.292;11.784;2022-09-27T18:10:04;4.40;;;2.90;;
69551;SDS011;63774;45.292;11.784;2022-09-27T18:12:30;4.30;;;2.80;;
69551;SDS011;63774;45.292;11.784;2022-09-27T18:15:05;5.20;;;2.90;;
69551;SDS011;63774;45.292;11.784;2022-09-27T18:17:53;18.50;;;5.10;;
69551;SDS011;63774;45.292;11.784;2022-09-27T18:20:20;15.80;;;4.60;;
69551;SDS011;63774;45.292;11.784;2022-09-27T18:22:54;14.10;;;4.30;;
69551;SDS011;63774;45.292;11.784;2022-09-27T18:25:20;10.20;;;4.20;;
69551;SDS011;63774;45.292;11.784;2022-09-27T18:27:47;9.70;;;4.10;;
69551;SDS011;63774;45.292;11.784;2022-09-27T18:30:15;9.50;;;3.60;;
69551;SDS011;63774;45.292;11.784;2022-09-27T18:32:41;11.70;;;4.40;;
69551;SDS011;63774;45.292;11.784;2022-09-27T18:35:12;6.90;;;3.80;;
69551;SDS011;63774;45.292;11.784;2022-09-27T18:37:38;6.40;;;3.40;;
69551;SDS011;63774;45.292;11.784;2022-09-27T18:40:07;5.70;;;3.30;;
69551;SDS011;63774;45.292;11.784;2022-09-27T18:42:42;6.10;;;3.70;;
69551;SDS011;63774;45.292;11.784;2022-09-27T18:45:08;9.70;;;3.60;;
69551;SDS011;63774;45.292;11.784;2022-09-27T18:50:08;8.80;;;3.00;;
69551;SDS011;63774;45.292;11.784;2022-09-27T18:52:35;5.80;;;3.10;;
69551;SDS011;63774;45.292;11.784;2022-09-27T18:55:12;5.50;;;2.20;;
69551;SDS011;63774;45.292;11.784;2022-09-27T18:57:41;3.10;;;1.80;;
69551;SDS011;63774;45.292;11.784;2022-09-27T19:02:41;3.80;;;1.50;;
69551;SDS011;63774;45.292;11.784;2022-09-27T19:05:10;2.50;;;1.10;;
69551;SDS011;63774;45.292;11.784;2022-09-27T19:07:45;2.40;;;1.30;;
69551;SDS011;63774;45.292;11.784;2022-09-27T19:10:16;1.50;;;0.80;;
69551;SDS011;63774;45.292;11.784;2022-09-27T19:12:44;2.40;;;0.90;;
69551;SDS011;63774;45.292;11.784;2022-09-27T19:15:11;1.20;;;0.80;;
69551;SDS011;63774;45.292;11.784;2022-09-27T19:20:14;4.30;;;1.00;;
69551;SDS011;63774;45.292;11.784;2022-09-27T19:23:00;2.90;;;0.80;;
69551;SDS011;63774;45.292;11.784;2022-09-27T19:25:44;3.60;;;1.00;;
69551;SDS011;63774;45.292;11.784;2022-09-27T19:28:21;4.00;;;0.90;;
69551;SDS011;63774;45.292;11.784;2022-09-27T19:30:49;2.40;;;1.10;;
69551;SDS011;63774;45.292;11.784;2022-09-27T19:33:41;2.70;;;1.00;;
69551;SDS011;63774;45.292;11.784;2022-09-27T19:36:08;2.00;;;1.10;;
69551;SDS011;63774;45.292;11.784;2022-09-27T19:41:11;2.30;;;1.10;;
69551;SDS011;63774;45.292;11.784;2022-09-27T19:44:08;2.40;;;0.90;;
69551;SDS011;63774;45.292;11.784;2022-09-27T19:46:34;3.60;;;1.00;;
69551;SDS011;63774;45.292;11.784;2022-09-27T19:49:08;1.40;;;0.70;;
69551;SDS011;63774;45.292;11.784;2022-09-27T19:54:16;1.50;;;0.80;;
69551;SDS011;63774;45.292;11.784;2022-09-27T19:56:50;2.30;;;0.70;;
69551;SDS011;63774;45.292;11.784;2022-09-27T19:59:16;2.30;;;0.60;;
69551;SDS011;63774;45.292;11.784;2022-09-27T20:01:51;1.90;;;0.80;;
69551;SDS011;63774;45.292;11.784;2022-09-27T20:04:19;1.80;;;0.80;;
69551;SDS011;63774;45.292;11.784;2022-09-27T20:06:54;1.40;;;0.60;;
69551;SDS011;63774;45.292;11.784;2022-09-27T20:09:20;1.00;;;0.60;;
69551;SDS011;63774;45.292;11.784;2022-09-27T20:11:49;1.30;;;0.70;;
69551;SDS011;63774;45.292;11.784;2022-09-27T20:14:15;1.40;;;0.70;;
69551;SDS011;63774;45.292;11.784;2022-09-27T20:16:58;2.20;;;0.50;;
69551;SDS011;63774;45.292;11.784;2022-09-27T20:19:24;1.40;;;0.60;;
69551;SDS011;63774;45.292;11.784;2022-09-27T20:21:50;1.20;;;0.60;;
69551;SDS011;63774;45.292;11.784;2022-09-27T20:24:23;1.70;;;0.40;;
69551;SDS011;63774;45.292;11.784;2022-09-27T20:26:51;1.20;;;0.50;;